sensor_id;sensor_type;location;lat;lon;timestamp;temperature;humidity
16404;DHT22;8311;50.158;8.642;2023-09-30T00:02:53;22.00;62.80
16404;DHT22;8311;50.158;8.642;2023-09-30T00:05:47;22.00;62.70
16404;DHT22;8311;50.158;8.642;2023-09-30T00:08:41;22.00;62.70
16404;DHT22;8311;50.158;8.642;2023-09-30T00:11:35;22.00;62.70
16404;DHT22;8311;50.158;8.642;2023-09-30T00:14:28;22.00;62.70
16404;DHT22;8311;50.158;8.642;2023-09-30T00:17:21;22.00;62.60
16404;DHT22;8311;50.158;8.642;2023-09-30T00:20:14;22.00;62.60
16404;DHT22;8311;50.158;8.642;2023-09-30T00:23:08;21.90;62.60
16404;DHT22;8311;50.158;8.642;2023-09-30T00:26:02;22.00;62.60
16404;DHT22;8311;50.158;8.642;2023-09-30T00:28:55;21.90;62.50
16404;DHT22;8311;50.158;8.642;2023-09-30T00:31:49;21.90;62.40
16404;DHT22;8311;50.158;8.642;2023-09-30T00:34:42;22.00;62.40
16404;DHT22;8311;50.158;8.642;2023-09-30T00:37:36;21.90;62.40
16404;DHT22;8311;50.158;8.642;2023-09-30T00:40:30;21.90;62.30
16404;DHT22;8311;50.158;8.642;2023-09-30T00:43:23;22.00;62.40
16404;DHT22;8311;50.158;8.642;2023-09-30T00:46:24;22.00;62.30
16404;DHT22;8311;50.158;8.642;2023-09-30T00:49:19;22.00;62.30
16404;DHT22;8311;50.158;8.642;2023-09-30T00:52:12;21.90;62.10
16404;DHT22;8311;50.158;8.642;2023-09-30T00:55:07;22.00;62.30
16404;DHT22;8311;50.158;8.642;2023-09-30T00:58:04;22.00;62.20
16404;DHT22;8311;50.158;8.642;2023-09-30T01:00:59;21.90;62.10
16404;DHT22;8311;50.158;8.642;2023-09-30T01:03:52;22.00;62.20
16404;DHT22;8311;50.158;8.642;2023-09-30T01:06:46;22.00;62.10
16404;DHT22;8311;50.158;8.642;2023-09-30T01:09:40;21.90;62.00
16404;DHT22;8311;50.158;8.642;2023-09-30T01:12:34;22.00;62.00
16404;DHT22;8311;50.158;8.642;2023-09-30T01:15:30;21.90;61.90
16404;DHT22;8311;50.158;8.642;2023-09-30T01:18:23;21.90;61.80
16404;DHT22;8311;50.158;8.642;2023-09-30T01:21:18;21.90;61.80
16404;DHT22;8311;50.158;8.642;2023-09-30T01:24:12;21.90;61.70
16404;DHT22;8311;50.158;8.642;2023-09-30T01:27:06;21.90;61.70
16404;DHT22;8311;50.158;8.642;2023-09-30T01:30:00;21.90;61.60
16404;DHT22;8311;50.158;8.642;2023-09-30T01:32:53;21.90;61.60
16404;DHT22;8311;50.158;8.642;2023-09-30T01:35:47;21.90;61.50
16404;DHT22;8311;50.158;8.642;2023-09-30T01:38:40;21.90;61.50
16404;DHT22;8311;50.158;8.642;2023-09-30T01:41:34;21.90;61.50
16404;DHT22;8311;50.158;8.642;2023-09-30T01:44:27;21.90;61.40
16404;DHT22;8311;50.158;8.642;2023-09-30T01:47:20;21.90;61.30
16404;DHT22;8311;50.158;8.642;2023-09-30T01:50:13;21.90;61.30
16404;DHT22;8311;50.158;8.642;2023-09-30T01:53:07;21.90;61.30
16404;DHT22;8311;50.158;8.642;2023-09-30T01:56:01;21.90;61.20
16404;DHT22;8311;50.158;8.642;2023-09-30T01:58:55;21.90;61.20
16404;DHT22;8311;50.158;8.642;2023-09-30T02:01:49;21.90;61.10
16404;DHT22;8311;50.158;8.642;2023-09-30T02:04:42;21.90;61.00
16404;DHT22;8311;50.158;8.642;2023-09-30T02:07:35;21.90;61.00
16404;DHT22;8311;50.158;8.642;2023-09-30T02:10:28;21.90;60.90
16404;DHT22;8311;50.158;8.642;2023-09-30T02:13:22;21.90;60.90
16404;DHT22;8311;50.158;8.642;2023-09-30T02:16:16;21.90;60.80
16404;DHT22;8311;50.158;8.642;2023-09-30T02:19:10;21.90;60.80
16404;DHT22;8311;50.158;8.642;2023-09-30T02:22:04;21.90;61.30
16404;DHT22;8311;50.158;8.642;2023-09-30T02:24:57;21.90;61.10
16404;DHT22;8311;50.158;8.642;2023-09-30T02:27:50;21.90;60.90
16404;DHT22;8311;50.158;8.642;2023-09-30T02:30:43;21.90;60.80
16404;DHT22;8311;50.158;8.642;2023-09-30T02:33:38;21.90;60.70
16404;DHT22;8311;50.158;8.642;2023-09-30T02:36:33;21.80;60.60
16404;DHT22;8311;50.158;8.642;2023-09-30T02:39:28;21.90;60.60
16404;DHT22;8311;50.158;8.642;2023-09-30T02:42:21;21.90;60.50
16404;DHT22;8311;50.158;8.642;2023-09-30T02:45:15;21.90;61.30
16404;DHT22;8311;50.158;8.642;2023-09-30T02:48:10;21.90;60.40
16404;DHT22;8311;50.158;8.642;2023-09-30T02:51:09;21.90;60.40
16404;DHT22;8311;50.158;8.642;2023-09-30T02:54:02;21.90;60.30
16404;DHT22;8311;50.158;8.642;2023-09-30T02:56:56;21.80;60.30
16404;DHT22;8311;50.158;8.642;2023-09-30T02:59:49;21.80;60.20
16404;DHT22;8311;50.158;8.642;2023-09-30T03:02:43;21.80;60.20
16404;DHT22;8311;50.158;8.642;2023-09-30T03:05:36;21.80;60.10
16404;DHT22;8311;50.158;8.642;2023-09-30T03:08:30;21.80;60.10
16404;DHT22;8311;50.158;8.642;2023-09-30T03:11:23;21.80;60.00
16404;DHT22;8311;50.158;8.642;2023-09-30T03:14:17;21.80;60.00
16404;DHT22;8311;50.158;8.642;2023-09-30T03:17:12;21.80;59.90
16404;DHT22;8311;50.158;8.642;2023-09-30T03:20:07;21.80;59.90
16404;DHT22;8311;50.158;8.642;2023-09-30T03:23:03;21.80;59.90
16404;DHT22;8311;50.158;8.642;2023-09-30T03:25:59;21.80;59.90
16404;DHT22;8311;50.158;8.642;2023-09-30T03:28:52;21.80;59.90
16404;DHT22;8311;50.158;8.642;2023-09-30T03:31:45;21.80;59.80
16404;DHT22;8311;50.158;8.642;2023-09-30T03:34:38;21.80;59.80
16404;DHT22;8311;50.158;8.642;2023-09-30T03:37:36;21.80;59.70
16404;DHT22;8311;50.158;8.642;2023-09-30T03:40:30;21.80;59.70
16404;DHT22;8311;50.158;8.642;2023-09-30T03:43:27;21.80;59.70
16404;DHT22;8311;50.158;8.642;2023-09-30T03:46:20;21.80;59.70
16404;DHT22;8311;50.158;8.642;2023-09-30T03:49:13;21.80;59.60
16404;DHT22;8311;50.158;8.642;2023-09-30T03:52:07;21.80;59.60
16404;DHT22;8311;50.158;8.642;2023-09-30T03:55:01;21.80;59.60
16404;DHT22;8311;50.158;8.642;2023-09-30T03:57:57;21.80;59.60
16404;DHT22;8311;50.158;8.642;2023-09-30T04:00:52;21.80;59.50
16404;DHT22;8311;50.158;8.642;2023-09-30T04:03:45;21.80;59.50
16404;DHT22;8311;50.158;8.642;2023-09-30T04:06:38;21.80;59.50
16404;DHT22;8311;50.158;8.642;2023-09-30T04:09:31;21.80;59.50
16404;DHT22;8311;50.158;8.642;2023-09-30T04:12:27;21.80;59.50
16404;DHT22;8311;50.158;8.642;2023-09-30T04:15:21;21.80;59.50
16404;DHT22;8311;50.158;8.642;2023-09-30T04:18:17;21.80;59.50
16404;DHT22;8311;50.158;8.642;2023-09-30T04:21:12;21.70;59.40
16404;DHT22;8311;50.158;8.642;2023-09-30T04:24:06;21.70;59.40
16404;DHT22;8311;50.158;8.642;2023-09-30T04:26:59;21.70;59.40
16404;DHT22;8311;50.158;8.642;2023-09-30T04:29:56;21.70;59.40
16404;DHT22;8311;50.158;8.642;2023-09-30T04:32:49;21.70;59.40
16404;DHT22;8311;50.158;8.642;2023-09-30T04:35:46;21.80;59.40
16404;DHT22;8311;50.158;8.642;2023-09-30T04:38:39;21.70;59.40
16404;DHT22;8311;50.158;8.642;2023-09-30T04:41:33;21.70;59.40
16404;DHT22;8311;50.158;8.642;2023-09-30T04:44:26;21.70;59.40
16404;DHT22;8311;50.158;8.642;2023-09-30T04:47:22;21.70;59.30
16404;DHT22;8311;50.158;8.642;2023-09-30T04:50:16;21.70;59.40
16404;DHT22;8311;50.158;8.642;2023-09-30T04:53:10;21.70;59.30
16404;DHT22;8311;50.158;8.642;2023-09-30T04:56:04;21.70;59.30
16404;DHT22;8311;50.158;8.642;2023-09-30T04:58:57;21.70;59.30
16404;DHT22;8311;50.158;8.642;2023-09-30T05:01:51;21.70;59.30
16404;DHT22;8311;50.158;8.642;2023-09-30T05:04:45;21.70;59.30
16404;DHT22;8311;50.158;8.642;2023-09-30T05:07:38;21.70;59.30
16404;DHT22;8311;50.158;8.642;2023-09-30T05:10:32;21.70;59.30
16404;DHT22;8311;50.158;8.642;2023-09-30T05:13:27;21.70;59.30
16404;DHT22;8311;50.158;8.642;2023-09-30T05:16:20;21.70;59.30
16404;DHT22;8311;50.158;8.642;2023-09-30T05:19:13;21.70;59.30
16404;DHT22;8311;50.158;8.642;2023-09-30T05:22:06;21.70;59.30
16404;DHT22;8311;50.158;8.642;2023-09-30T05:24:59;21.70;59.30
16404;DHT22;8311;50.158;8.642;2023-09-30T05:27:55;21.70;59.20
16404;DHT22;8311;50.158;8.642;2023-09-30T05:30:49;21.70;59.20
16404;DHT22;8311;50.158;8.642;2023-09-30T05:33:42;21.70;59.30
16404;DHT22;8311;50.158;8.642;2023-09-30T05:36:35;21.70;59.20
16404;DHT22;8311;50.158;8.642;2023-09-30T05:39:28;21.70;59.20
16404;DHT22;8311;50.158;8.642;2023-09-30T05:42:23;21.70;59.20
16404;DHT22;8311;50.158;8.642;2023-09-30T05:45:18;21.70;59.20
16404;DHT22;8311;50.158;8.642;2023-09-30T05:48:11;21.70;59.30
16404;DHT22;8311;50.158;8.642;2023-09-30T05:51:04;21.70;59.20
16404;DHT22;8311;50.158;8.642;2023-09-30T05:53:57;21.70;59.20
16404;DHT22;8311;50.158;8.642;2023-09-30T05:56:50;21.70;59.20
16404;DHT22;8311;50.158;8.642;2023-09-30T05:59:43;21.70;59.20
16404;DHT22;8311;50.158;8.642;2023-09-30T06:02:40;21.70;59.20
16404;DHT22;8311;50.158;8.642;2023-09-30T06:05:34;21.70;59.20
16404;DHT22;8311;50.158;8.642;2023-09-30T06:08:32;21.70;59.20
16404;DHT22;8311;50.158;8.642;2023-09-30T06:11:26;21.70;59.10
16404;DHT22;8311;50.158;8.642;2023-09-30T06:14:20;21.70;59.10
16404;DHT22;8311;50.158;8.642;2023-09-30T06:17:13;21.70;59.50
16404;DHT22;8311;50.158;8.642;2023-09-30T06:20:09;21.70;59.30
16404;DHT22;8311;50.158;8.642;2023-09-30T06:23:08;21.70;59.30
16404;DHT22;8311;50.158;8.642;2023-09-30T06:26:03;21.70;59.20
16404;DHT22;8311;50.158;8.642;2023-09-30T06:28:56;21.70;59.20
16404;DHT22;8311;50.158;8.642;2023-09-30T06:31:50;21.70;59.20
16404;DHT22;8311;50.158;8.642;2023-09-30T06:34:43;21.70;59.20
16404;DHT22;8311;50.158;8.642;2023-09-30T06:37:38;21.70;59.40
16404;DHT22;8311;50.158;8.642;2023-09-30T06:40:31;21.70;59.30
16404;DHT22;8311;50.158;8.642;2023-09-30T06:43:28;21.70;59.20
16404;DHT22;8311;50.158;8.642;2023-09-30T06:46:21;21.70;59.20
16404;DHT22;8311;50.158;8.642;2023-09-30T06:49:16;21.70;59.20
16404;DHT22;8311;50.158;8.642;2023-09-30T06:52:09;21.70;59.20
16404;DHT22;8311;50.158;8.642;2023-09-30T06:55:04;21.70;59.70
16404;DHT22;8311;50.158;8.642;2023-09-30T06:57:58;21.70;59.70
16404;DHT22;8311;50.158;8.642;2023-09-30T07:00:53;21.70;59.40
16404;DHT22;8311;50.158;8.642;2023-09-30T07:03:46;21.70;60.90
16404;DHT22;8311;50.158;8.642;2023-09-30T07:06:39;21.70;63.20
16404;DHT22;8311;50.158;8.642;2023-09-30T07:09:32;21.70;60.30
16404;DHT22;8311;50.158;8.642;2023-09-30T07:12:28;21.80;59.60
16404;DHT22;8311;50.158;8.642;2023-09-30T07:15:22;21.70;59.30
16404;DHT22;8311;50.158;8.642;2023-09-30T07:18:16;21.80;59.30
16404;DHT22;8311;50.158;8.642;2023-09-30T07:21:12;21.80;59.60
16404;DHT22;8311;50.158;8.642;2023-09-30T07:24:06;21.80;59.60
16404;DHT22;8311;50.158;8.642;2023-09-30T07:26:59;21.80;62.30
16404;DHT22;8311;50.158;8.642;2023-09-30T07:29:55;21.80;64.30
16404;DHT22;8311;50.158;8.642;2023-09-30T07:32:48;21.90;63.80
16404;DHT22;8311;50.158;8.642;2023-09-30T07:35:42;21.90;63.20
16404;DHT22;8311;50.158;8.642;2023-09-30T07:38:35;21.90;63.50
16404;DHT22;8311;50.158;8.642;2023-09-30T07:41:34;22.00;63.00
16404;DHT22;8311;50.158;8.642;2023-09-30T07:44:28;22.00;62.30
16404;DHT22;8311;50.158;8.642;2023-09-30T07:47:22;22.00;62.00
16404;DHT22;8311;50.158;8.642;2023-09-30T07:50:15;22.00;61.90
16404;DHT22;8311;50.158;8.642;2023-09-30T07:53:09;22.10;62.10
16404;DHT22;8311;50.158;8.642;2023-09-30T07:56:04;22.10;62.20
16404;DHT22;8311;50.158;8.642;2023-09-30T07:58:56;22.20;62.30
16404;DHT22;8311;50.158;8.642;2023-09-30T08:01:49;22.20;62.10
16404;DHT22;8311;50.158;8.642;2023-09-30T08:04:45;22.20;62.00
16404;DHT22;8311;50.158;8.642;2023-09-30T08:07:38;22.30;62.00
16404;DHT22;8311;50.158;8.642;2023-09-30T08:10:32;22.30;61.90
16404;DHT22;8311;50.158;8.642;2023-09-30T08:13:26;22.40;62.10
16404;DHT22;8311;50.158;8.642;2023-09-30T08:16:20;22.40;62.10
16404;DHT22;8311;50.158;8.642;2023-09-30T08:19:13;22.40;61.80
16404;DHT22;8311;50.158;8.642;2023-09-30T08:22:08;22.50;61.90
16404;DHT22;8311;50.158;8.642;2023-09-30T08:25:01;22.50;61.70
16404;DHT22;8311;50.158;8.642;2023-09-30T08:27:55;22.60;61.60
16404;DHT22;8311;50.158;8.642;2023-09-30T08:30:48;22.60;61.60
16404;DHT22;8311;50.158;8.642;2023-09-30T08:33:42;22.60;61.60
16404;DHT22;8311;50.158;8.642;2023-09-30T08:36:37;22.70;61.70
16404;DHT22;8311;50.158;8.642;2023-09-30T08:39:32;22.80;61.70
16404;DHT22;8311;50.158;8.642;2023-09-30T08:42:26;22.70;62.00
16404;DHT22;8311;50.158;8.642;2023-09-30T08:45:24;22.70;60.70
16404;DHT22;8311;50.158;8.642;2023-09-30T08:48:20;22.70;60.10
16404;DHT22;8311;50.158;8.642;2023-09-30T08:51:14;22.70;59.90
16404;DHT22;8311;50.158;8.642;2023-09-30T08:54:07;22.70;60.00
16404;DHT22;8311;50.158;8.642;2023-09-30T08:57:03;22.80;60.00
16404;DHT22;8311;50.158;8.642;2023-09-30T08:59:58;22.80;59.80
16404;DHT22;8311;50.158;8.642;2023-09-30T09:02:52;22.80;59.50
16404;DHT22;8311;50.158;8.642;2023-09-30T09:05:45;22.80;59.70
16404;DHT22;8311;50.158;8.642;2023-09-30T09:08:38;22.80;59.50
16404;DHT22;8311;50.158;8.642;2023-09-30T09:11:37;22.80;58.60
16404;DHT22;8311;50.158;8.642;2023-09-30T09:14:38;22.90;59.30
16404;DHT22;8311;50.158;8.642;2023-09-30T09:17:41;22.90;59.00
16404;DHT22;8311;50.158;8.642;2023-09-30T09:20:35;22.80;58.90
16404;DHT22;8311;50.158;8.642;2023-09-30T09:23:33;22.80;58.20
16404;DHT22;8311;50.158;8.642;2023-09-30T09:26:32;22.80;57.80
16404;DHT22;8311;50.158;8.642;2023-09-30T09:29:26;22.90;57.20
16404;DHT22;8311;50.158;8.642;2023-09-30T09:32:21;22.90;58.40
16404;DHT22;8311;50.158;8.642;2023-09-30T09:35:19;22.90;58.80
16404;DHT22;8311;50.158;8.642;2023-09-30T09:38:12;22.80;59.00
16404;DHT22;8311;50.158;8.642;2023-09-30T09:41:05;22.80;59.00
16404;DHT22;8311;50.158;8.642;2023-09-30T09:43:59;22.80;59.10
16404;DHT22;8311;50.158;8.642;2023-09-30T09:46:52;22.80;58.60
16404;DHT22;8311;50.158;8.642;2023-09-30T09:49:47;22.80;58.70
16404;DHT22;8311;50.158;8.642;2023-09-30T09:52:41;22.80;58.90
16404;DHT22;8311;50.158;8.642;2023-09-30T09:55:36;22.80;58.00
16404;DHT22;8311;50.158;8.642;2023-09-30T09:58:32;22.80;58.00
16404;DHT22;8311;50.158;8.642;2023-09-30T10:01:27;22.80;58.70
16404;DHT22;8311;50.158;8.642;2023-09-30T10:04:20;22.80;58.20
16404;DHT22;8311;50.158;8.642;2023-09-30T10:07:20;22.80;58.70
16404;DHT22;8311;50.158;8.642;2023-09-30T10:10:17;22.80;58.70
16404;DHT22;8311;50.158;8.642;2023-09-30T10:16:49;22.90;56.80
16404;DHT22;8311;50.158;8.642;2023-09-30T10:20:04;22.80;57.90
16404;DHT22;8311;50.158;8.642;2023-09-30T10:23:22;22.80;58.00
16404;DHT22;8311;50.158;8.642;2023-09-30T10:26:16;22.90;58.20
16404;DHT22;8311;50.158;8.642;2023-09-30T10:29:13;22.90;56.60
16404;DHT22;8311;50.158;8.642;2023-09-30T10:32:07;22.90;57.20
16404;DHT22;8311;50.158;8.642;2023-09-30T10:34:59;22.90;57.60
16404;DHT22;8311;50.158;8.642;2023-09-30T10:41:50;22.90;58.30
16404;DHT22;8311;50.158;8.642;2023-09-30T10:44:43;22.90;56.30
16404;DHT22;8311;50.158;8.642;2023-09-30T10:47:36;22.90;56.90
16404;DHT22;8311;50.158;8.642;2023-09-30T10:50:50;22.90;57.50
16404;DHT22;8311;50.158;8.642;2023-09-30T10:53:45;22.90;57.00
16404;DHT22;8311;50.158;8.642;2023-09-30T10:56:39;22.90;57.30
16404;DHT22;8311;50.158;8.642;2023-09-30T10:59:33;22.80;57.60
16404;DHT22;8311;50.158;8.642;2023-09-30T11:02:27;22.90;56.30
16404;DHT22;8311;50.158;8.642;2023-09-30T11:05:22;22.90;57.40
16404;DHT22;8311;50.158;8.642;2023-09-30T11:08:37;22.90;56.80
16404;DHT22;8311;50.158;8.642;2023-09-30T11:11:34;23.00;56.40
16404;DHT22;8311;50.158;8.642;2023-09-30T11:14:29;22.90;56.90
16404;DHT22;8311;50.158;8.642;2023-09-30T11:17:24;22.90;54.20
16404;DHT22;8311;50.158;8.642;2023-09-30T11:20:18;22.90;56.60
16404;DHT22;8311;50.158;8.642;2023-09-30T11:23:10;22.90;57.20
16404;DHT22;8311;50.158;8.642;2023-09-30T11:26:05;23.00;56.20
16404;DHT22;8311;50.158;8.642;2023-09-30T11:29:05;23.00;55.00
16404;DHT22;8311;50.158;8.642;2023-09-30T11:31:59;23.00;55.60
16404;DHT22;8311;50.158;8.642;2023-09-30T11:34:55;22.90;56.40
16404;DHT22;8311;50.158;8.642;2023-09-30T11:37:48;23.00;53.40
16404;DHT22;8311;50.158;8.642;2023-09-30T11:40:58;23.00;54.20
16404;DHT22;8311;50.158;8.642;2023-09-30T11:43:59;23.00;54.80
16404;DHT22;8311;50.158;8.642;2023-09-30T11:46:54;23.00;56.30
16404;DHT22;8311;50.158;8.642;2023-09-30T11:49:52;23.00;56.80
16404;DHT22;8311;50.158;8.642;2023-09-30T11:52:48;23.00;56.80
16404;DHT22;8311;50.158;8.642;2023-09-30T11:55:42;23.00;57.30
16404;DHT22;8311;50.158;8.642;2023-09-30T11:58:34;22.90;56.60
16404;DHT22;8311;50.158;8.642;2023-09-30T12:01:28;23.00;56.90
16404;DHT22;8311;50.158;8.642;2023-09-30T12:04:22;23.00;56.50
16404;DHT22;8311;50.158;8.642;2023-09-30T12:07:16;23.00;55.90
16404;DHT22;8311;50.158;8.642;2023-09-30T12:10:10;23.00;56.00
16404;DHT22;8311;50.158;8.642;2023-09-30T12:13:06;23.00;56.70
16404;DHT22;8311;50.158;8.642;2023-09-30T12:16:04;23.00;56.50
16404;DHT22;8311;50.158;8.642;2023-09-30T12:18:56;23.00;55.00
16404;DHT22;8311;50.158;8.642;2023-09-30T12:21:49;23.00;55.60
16404;DHT22;8311;50.158;8.642;2023-09-30T12:24:43;23.00;53.90
16404;DHT22;8311;50.158;8.642;2023-09-30T12:27:40;23.00;53.30
16404;DHT22;8311;50.158;8.642;2023-09-30T12:30:33;23.00;53.40
16404;DHT22;8311;50.158;8.642;2023-09-30T12:33:27;23.00;52.50
16404;DHT22;8311;50.158;8.642;2023-09-30T12:36:21;23.00;54.50
16404;DHT22;8311;50.158;8.642;2023-09-30T12:39:15;23.00;54.90
16404;DHT22;8311;50.158;8.642;2023-09-30T12:42:08;23.00;55.40
16404;DHT22;8311;50.158;8.642;2023-09-30T12:45:07;23.00;56.20
16404;DHT22;8311;50.158;8.642;2023-09-30T12:48:00;23.00;56.10
16404;DHT22;8311;50.158;8.642;2023-09-30T12:50:54;23.00;53.00
16404;DHT22;8311;50.158;8.642;2023-09-30T12:53:46;23.00;52.10
16404;DHT22;8311;50.158;8.642;2023-09-30T12:56:40;23.00;54.00
16404;DHT22;8311;50.158;8.642;2023-09-30T12:59:33;22.90;55.50
16404;DHT22;8311;50.158;8.642;2023-09-30T13:02:27;22.90;55.80
16404;DHT22;8311;50.158;8.642;2023-09-30T13:05:20;22.90;55.70
16404;DHT22;8311;50.158;8.642;2023-09-30T13:08:14;22.90;55.40
16404;DHT22;8311;50.158;8.642;2023-09-30T13:11:07;22.90;55.80
16404;DHT22;8311;50.158;8.642;2023-09-30T13:14:01;22.90;56.50
16404;DHT22;8311;50.158;8.642;2023-09-30T13:16:54;22.90;55.60
16404;DHT22;8311;50.158;8.642;2023-09-30T13:19:48;22.90;56.70
16404;DHT22;8311;50.158;8.642;2023-09-30T13:22:40;22.90;56.50
16404;DHT22;8311;50.158;8.642;2023-09-30T13:25:34;22.90;57.40
16404;DHT22;8311;50.158;8.642;2023-09-30T13:28:27;22.90;55.50
16404;DHT22;8311;50.158;8.642;2023-09-30T13:31:21;22.80;56.00
16404;DHT22;8311;50.158;8.642;2023-09-30T13:34:13;22.80;55.80
16404;DHT22;8311;50.158;8.642;2023-09-30T13:37:09;22.80;57.10
16404;DHT22;8311;50.158;8.642;2023-09-30T13:40:03;22.80;57.10
16404;DHT22;8311;50.158;8.642;2023-09-30T13:43:00;22.80;57.60
16404;DHT22;8311;50.158;8.642;2023-09-30T13:45:53;22.80;57.90
16404;DHT22;8311;50.158;8.642;2023-09-30T13:48:46;22.70;58.20
16404;DHT22;8311;50.158;8.642;2023-09-30T13:51:43;22.80;58.00
16404;DHT22;8311;50.158;8.642;2023-09-30T13:54:38;22.70;58.30
16404;DHT22;8311;50.158;8.642;2023-09-30T13:57:32;22.70;57.40
16404;DHT22;8311;50.158;8.642;2023-09-30T14:00:25;22.80;57.90
16404;DHT22;8311;50.158;8.642;2023-09-30T14:03:19;22.70;57.10
16404;DHT22;8311;50.158;8.642;2023-09-30T14:06:13;22.70;57.50
16404;DHT22;8311;50.158;8.642;2023-09-30T14:09:06;22.70;57.80
16404;DHT22;8311;50.158;8.642;2023-09-30T14:12:27;22.70;57.40
16404;DHT22;8311;50.158;8.642;2023-09-30T14:15:21;22.70;58.20
16404;DHT22;8311;50.158;8.642;2023-09-30T14:18:14;22.70;58.10
16404;DHT22;8311;50.158;8.642;2023-09-30T14:21:08;22.70;58.50
16404;DHT22;8311;50.158;8.642;2023-09-30T14:24:00;22.70;58.00
16404;DHT22;8311;50.158;8.642;2023-09-30T14:26:55;22.70;54.90
16404;DHT22;8311;50.158;8.642;2023-09-30T14:29:49;22.70;57.50
16404;DHT22;8311;50.158;8.642;2023-09-30T14:32:43;22.70;57.80
16404;DHT22;8311;50.158;8.642;2023-09-30T14:35:36;22.70;57.90
16404;DHT22;8311;50.158;8.642;2023-09-30T14:38:29;22.60;58.30
16404;DHT22;8311;50.158;8.642;2023-09-30T14:41:21;22.60;58.60
16404;DHT22;8311;50.158;8.642;2023-09-30T14:44:15;22.60;59.00
16404;DHT22;8311;50.158;8.642;2023-09-30T14:47:10;22.60;59.20
16404;DHT22;8311;50.158;8.642;2023-09-30T14:50:05;22.60;59.30
16404;DHT22;8311;50.158;8.642;2023-09-30T14:52:58;22.60;59.30
16404;DHT22;8311;50.158;8.642;2023-09-30T14:55:52;22.60;59.40
16404;DHT22;8311;50.158;8.642;2023-09-30T14:58:45;22.60;59.50
16404;DHT22;8311;50.158;8.642;2023-09-30T15:01:39;22.60;59.60
16404;DHT22;8311;50.158;8.642;2023-09-30T15:04:34;22.60;59.60
16404;DHT22;8311;50.158;8.642;2023-09-30T15:07:28;22.60;59.60
16404;DHT22;8311;50.158;8.642;2023-09-30T15:10:20;22.60;59.60
16404;DHT22;8311;50.158;8.642;2023-09-30T15:13:14;22.60;59.60
16404;DHT22;8311;50.158;8.642;2023-09-30T15:16:14;22.60;59.50
16404;DHT22;8311;50.158;8.642;2023-09-30T15:19:08;22.60;59.50
16404;DHT22;8311;50.158;8.642;2023-09-30T15:22:03;22.60;59.50
16404;DHT22;8311;50.158;8.642;2023-09-30T15:24:57;22.60;59.30
16404;DHT22;8311;50.158;8.642;2023-09-30T15:27:50;22.60;59.40
16404;DHT22;8311;50.158;8.642;2023-09-30T15:30:44;22.60;59.40
16404;DHT22;8311;50.158;8.642;2023-09-30T15:33:37;22.60;59.50
16404;DHT22;8311;50.158;8.642;2023-09-30T15:36:29;22.60;59.50
16404;DHT22;8311;50.158;8.642;2023-09-30T15:39:24;22.50;59.40
16404;DHT22;8311;50.158;8.642;2023-09-30T15:42:17;22.60;59.60
16404;DHT22;8311;50.158;8.642;2023-09-30T15:45:11;22.50;59.60
16404;DHT22;8311;50.158;8.642;2023-09-30T15:48:04;22.60;59.60
16404;DHT22;8311;50.158;8.642;2023-09-30T15:50:58;22.50;59.70
16404;DHT22;8311;50.158;8.642;2023-09-30T15:53:50;22.60;59.70
16404;DHT22;8311;50.158;8.642;2023-09-30T15:56:45;22.50;59.70
16404;DHT22;8311;50.158;8.642;2023-09-30T15:59:46;22.50;59.70
16404;DHT22;8311;50.158;8.642;2023-09-30T16:02:41;22.50;59.70
16404;DHT22;8311;50.158;8.642;2023-09-30T16:05:36;22.50;59.70
16404;DHT22;8311;50.158;8.642;2023-09-30T16:08:30;22.50;59.80
16404;DHT22;8311;50.158;8.642;2023-09-30T16:11:23;22.50;59.70
16404;DHT22;8311;50.158;8.642;2023-09-30T16:14:17;22.50;59.80
16404;DHT22;8311;50.158;8.642;2023-09-30T16:17:10;22.50;59.90
16404;DHT22;8311;50.158;8.642;2023-09-30T16:20:05;22.50;59.90
16404;DHT22;8311;50.158;8.642;2023-09-30T16:23:01;22.50;60.00
16404;DHT22;8311;50.158;8.642;2023-09-30T16:25:54;22.50;60.00
16404;DHT22;8311;50.158;8.642;2023-09-30T16:28:47;22.50;60.00
16404;DHT22;8311;50.158;8.642;2023-09-30T16:31:41;22.50;60.00
16404;DHT22;8311;50.158;8.642;2023-09-30T16:34:35;22.50;60.10
16404;DHT22;8311;50.158;8.642;2023-09-30T16:37:28;22.50;60.10
16404;DHT22;8311;50.158;8.642;2023-09-30T16:40:21;22.50;60.20
16404;DHT22;8311;50.158;8.642;2023-09-30T16:43:15;22.50;60.20
16404;DHT22;8311;50.158;8.642;2023-09-30T16:46:09;22.50;60.30
16404;DHT22;8311;50.158;8.642;2023-09-30T16:49:03;22.50;60.30
16404;DHT22;8311;50.158;8.642;2023-09-30T16:51:57;22.50;60.30
16404;DHT22;8311;50.158;8.642;2023-09-30T16:54:50;22.50;60.30
16404;DHT22;8311;50.158;8.642;2023-09-30T16:57:44;22.50;60.30
16404;DHT22;8311;50.158;8.642;2023-09-30T17:00:38;22.50;60.30
16404;DHT22;8311;50.158;8.642;2023-09-30T17:03:32;22.50;60.30
16404;DHT22;8311;50.158;8.642;2023-09-30T17:06:26;22.40;60.20
16404;DHT22;8311;50.158;8.642;2023-09-30T17:09:19;22.50;60.30
16404;DHT22;8311;50.158;8.642;2023-09-30T17:12:13;22.50;60.30
16404;DHT22;8311;50.158;8.642;2023-09-30T17:15:07;22.50;60.30
16404;DHT22;8311;50.158;8.642;2023-09-30T17:18:01;22.50;60.20
16404;DHT22;8311;50.158;8.642;2023-09-30T17:20:56;22.50;60.10
16404;DHT22;8311;50.158;8.642;2023-09-30T17:23:51;22.50;60.20
16404;DHT22;8311;50.158;8.642;2023-09-30T17:26:44;22.50;60.10
16404;DHT22;8311;50.158;8.642;2023-09-30T17:29:38;22.40;60.00
16404;DHT22;8311;50.158;8.642;2023-09-30T17:32:31;22.40;60.00
16404;DHT22;8311;50.158;8.642;2023-09-30T17:35:23;22.50;60.10
16404;DHT22;8311;50.158;8.642;2023-09-30T17:38:17;22.50;60.10
16404;DHT22;8311;50.158;8.642;2023-09-30T17:41:12;22.50;60.10
16404;DHT22;8311;50.158;8.642;2023-09-30T17:44:05;22.50;60.10
16404;DHT22;8311;50.158;8.642;2023-09-30T17:46:59;22.50;60.00
16404;DHT22;8311;50.158;8.642;2023-09-30T17:49:52;22.50;60.10
16404;DHT22;8311;50.158;8.642;2023-09-30T17:52:45;22.50;60.10
16404;DHT22;8311;50.158;8.642;2023-09-30T17:55:38;22.50;60.10
16404;DHT22;8311;50.158;8.642;2023-09-30T17:58:32;22.50;60.10
16404;DHT22;8311;50.158;8.642;2023-09-30T18:01:25;22.50;60.10
16404;DHT22;8311;50.158;8.642;2023-09-30T18:04:18;22.50;60.20
16404;DHT22;8311;50.158;8.642;2023-09-30T18:07:11;22.50;60.20
16404;DHT22;8311;50.158;8.642;2023-09-30T18:10:06;22.40;60.10
16404;DHT22;8311;50.158;8.642;2023-09-30T18:13:00;22.40;60.40
16404;DHT22;8311;50.158;8.642;2023-09-30T18:15:55;22.40;60.30
16404;DHT22;8311;50.158;8.642;2023-09-30T18:18:49;22.40;60.40
16404;DHT22;8311;50.158;8.642;2023-09-30T18:21:43;22.40;60.00
16404;DHT22;8311;50.158;8.642;2023-09-30T18:24:36;22.40;60.10
16404;DHT22;8311;50.158;8.642;2023-09-30T18:27:29;22.40;60.00
16404;DHT22;8311;50.158;8.642;2023-09-30T18:30:22;22.40;60.00
16404;DHT22;8311;50.158;8.642;2023-09-30T18:33:16;22.40;60.10
16404;DHT22;8311;50.158;8.642;2023-09-30T18:36:11;22.40;60.10
16404;DHT22;8311;50.158;8.642;2023-09-30T18:39:04;22.40;60.10
16404;DHT22;8311;50.158;8.642;2023-09-30T18:42:17;22.40;60.10
16404;DHT22;8311;50.158;8.642;2023-09-30T18:45:10;22.40;60.10
16404;DHT22;8311;50.158;8.642;2023-09-30T18:48:04;22.40;60.20